Nearby METAR Reports

 

KPMD - Palmdale, California, USA
Distance from station: NNE 12mi, 19km
Updated: Mon, 18-Feb-2019 1:53am PST
Clear
Clear
 Wind from WNW
Wind: WNW 21 mph , 33 km/h, Gust: 30 mph , 48 km/h
Temperature: 34°F , 1°C
Wind Chill: 22°F , -6°C
Dew Point: 25°F , -4°C
Humidity: 70%
Barometer: 29.97 inHg , 1014.9 hPa
Clouds: Clear
Visibility: 10 miles , 16 km
2019/02/18 09:53 KPMD 180953Z AUTO 29018G26KT 10SM CLR 01/M04 A2997 RMK AO2 PK WND 29026/0946 SLP156 T00111039
KWJF - Lancaster/Fox, California, USA
Distance from station: N 17mi, 27km
Updated: Mon, 18-Feb-2019 1:56am PST
Partly cloudy
Partly cloudy
 Wind from WNW
Wind: WNW 22 mph , 35 km/h, Gust: 28 mph , 44 km/h
Temperature: 34°F , 1°C
Wind Chill: 22°F , -6°C
Dew Point: 25°F , -4°C
Humidity: 70%
Barometer: 29.97 inHg , 1014.9 hPa
Clouds: Partly cloudy
Visibility: 10 miles , 16 km
Cloud details: Partly cloudy 7000 ft
2019/02/18 09:56 KWJF 180956Z AUTO 29019G24KT 10SM SCT070 01/M04 A2997 RMK AO2 PK WND 29027/0904 SLP163 T00111039
 
KMWS - Mount Wilson, California, USA
Distance from station: SSE 18mi, 30km
Updated: Wed, 13-May-2015 6:45am PDT
NOT Current

 Wind from S
Wind: S 3 mph , 6 km/h, Gust: 5 mph , 7 km/h
Temperature: 43°F , 6°C
Dew Point: -0°F , -18°C
Humidity: 16%
2015/05/13 13:45 KMWS 131345Z 18003G04KT 06/M18 RMK SNOW DEPTH 1.00
KWHP - La / Whiteman, California, USA
Distance from station: SW 21mi, 34km
Updated: Sun, 17-Feb-2019 7:55pm PST
NOT Current
Mostly cloudy
Mostly cloudy
 Wind from WSW
Wind: WSW 14 mph , 22 km/h, Gust: 22 mph , 35 km/h
Temperature: 46°F , 8°C
Wind Chill: 40°F , 4°C
Dew Point: 36°F , 2°C
Humidity: 66%
Barometer: 29.97 inHg , 1014.9 hPa
Clouds: Mostly cloudy
Visibility: 10 miles , 16 km
Cloud details: Mostly cloudy 5000 ft
2019/02/18 03:55 KWHP 180355Z 24012G19KT 10SM BKN050 08/02 A2997
 
KBUR - Burbank, California, USA
Distance from station: SSW 22mi, 35km
Updated: Mon, 18-Feb-2019 1:53am PST
Clear
Clear
 Wind from NW
Wind: NW 5 mph , 7 km/h
Temperature: 43°F , 6°C
Wind Chill: 40°F , 4°C
Dew Point: 28°F , -2°C
Humidity: 57%
Barometer: 30.00 inHg , 1015.9 hPa
Clouds: Clear
Visibility: 10 miles , 16 km
2019/02/18 09:53 KBUR 180953Z 31004KT 10SM CLR 06/M02 A3000 RMK AO2 SLP155 T00611022 $
KVNY - Van Nuys, California, USA
Distance from station: SW 25mi, 40km
Updated: Mon, 18-Feb-2019 1:51am PST
Clear
Clear
 Wind from NNW
Wind: NNW 16 mph , 26 km/h, Gust: 24 mph , 39 km/h
Temperature: 48°F , 9°C
Wind Chill: 42°F , 6°C
Dew Point: 25°F , -4°C
Humidity: 40%
Barometer: 30.00 inHg , 1015.9 hPa
Clouds: Clear
Visibility: 10 miles , 16 km
2019/02/18 09:51 KVNY 180951Z AUTO 33014G21KT 10SM CLR 09/M04 A3000 RMK AO2 SLP157 T00891044 $
 
KEDW - Edwards Afb, California, USA
Distance from station: NNE 33mi, 53km
Updated: Mon, 18-Feb-2019 1:58am PST
Clear
Clear
 Wind from WSW
Wind: WSW 5 mph , 7 km/h
Temperature: 34°F , 1°C
Wind Chill: 29°F , -2°C
Dew Point: 23°F , -5°C
Humidity: 65%
Barometer: 29.95 inHg , 1014.2 hPa
Clouds: Clear
Visibility: 10 miles , 16 km
2019/02/18 09:58 KEDW 180958Z AUTO 25004KT 10SM CLR 01/M05 A2995 RMK AO2 SLP150 T00131048
KSMO - Santa Monica, California, USA
Distance from station: SSW 35mi, 57km
Updated: Mon, 18-Feb-2019 1:51am PST
Clear
Clear
 Wind from calm
Wind: Calm
Temperature: 46°F , 8°C
Dew Point: 27°F , -3°C
Humidity: 46%
Barometer: 30.03 inHg , 1016.9 hPa
Clouds: Clear
Visibility: 10 miles , 16 km
2019/02/18 09:51 KSMO 180951Z AUTO 00000KT 10SM CLR 08/M03 A3003 RMK AO2 SLP169 T00781028
 
KLAX - Los Angeles, California, USA
Distance from station: SSW 39mi, 63km
Updated: Mon, 18-Feb-2019 1:53am PST
Few Clouds
Few Clouds
 Wind from WNW
Wind: WNW 10 mph , 17 km/h
Temperature: 48°F , 9°C
Wind Chill: 44°F , 7°C
Dew Point: 27°F , -3°C
Humidity: 43%
Barometer: 30.03 inHg , 1016.9 hPa
Clouds: Few Clouds
Visibility: 10 miles , 16 km
Cloud details: Few Clouds 4000 ft
Few Clouds 11000 ft
2019/02/18 09:53 KLAX 180953Z 30009KT 10SM FEW040 FEW110 09/M03 A3003 RMK AO2 SLP167 T00891028
KMHV - Mojave, California, USA
Distance from station: N 41mi, 66km
Updated: Mon, 18-Feb-2019 2:20am PST
Clear
Clear
 Wind from WNW
Wind: WNW 28 mph , 44 km/h, Gust: 37 mph , 59 km/h
Temperature: 34°F , 1°C
Wind Chill: 21°F , -6°C
Dew Point: 23°F , -5°C
Humidity: 65%
Barometer: 29.93 inHg , 1013.5 hPa
Clouds: Clear
Visibility: 10 miles , 16 km
2019/02/18 10:20 KMHV 181020Z AUTO 30024G32KT 10SM CLR 01/M05 A2993 RMK A01
 
KFUL - Fullerton, California, USA
Distance from station: SSE 44mi, 70km
Updated: Mon, 18-Feb-2019 1:53am PST
Clear
Clear
 Wind from calm
Wind: Calm
Temperature: 45°F , 7°C
Dew Point: 30°F , -1°C
Humidity: 57%
Barometer: 30.01 inHg , 1016.3 hPa
Clouds: Clear
Visibility: 10 miles , 16 km
2019/02/18 09:53 KFUL 180953Z AUTO 00000KT 10SM CLR 07/M01 A3001 RMK AO2 SLP161 T00671011
KONT - Ontario, California, USA
Distance from station: SE 45mi, 72km
Updated: Mon, 18-Feb-2019 1:53am PST
Few Clouds
Few Clouds
 Wind from ESE
Wind: ESE 3 mph , 6 km/h
Temperature: 41°F , 5°C
Dew Point: 36°F , 2°C
Humidity: 81%
Barometer: 29.98 inHg , 1015.2 hPa
Clouds: Few Clouds
Visibility: 10 miles , 16 km
Cloud details: Few Clouds 3000 ft
Few Clouds 5000 ft
2019/02/18 09:53 KONT 180953Z 12003KT 10SM FEW030 FEW050 05/02 A2998 RMK AO2 SLP155 T00500022 $
 
KLGB - Long Beach, California, USA
Distance from station: S 46mi, 74km
Updated: Mon, 18-Feb-2019 1:53am PST
Clear
Clear
 Wind from WNW
Wind: WNW 13 mph , 20 km/h
Temperature: 46°F , 8°C
Wind Chill: 40°F , 4°C
Dew Point: 27°F , -3°C
Humidity: 46%
Barometer: 30.01 inHg , 1016.3 hPa
Clouds: Clear
Visibility: 10 miles , 16 km
2019/02/18 09:53 KLGB 180953Z AUTO 30011KT 10SM CLR 08/M03 A3001 RMK AO2 SLP163 T00831028
KVCV - Victorville, California, USA
Distance from station: E 46mi, 74km
Updated: Sun, 17-Feb-2019 7:50pm PST
NOT Current
Mostly cloudy
Mostly cloudy
 Wind from WSW
Wind: WSW 7 mph , 11 km/h
Barometer: 29.91 inHg , 1012.9 hPa
Clouds: Mostly cloudy
Visibility: 10 miles , 16 km
Cloud details: Mostly cloudy 4500 ft
2019/02/18 03:50 KVCV 180350Z 24006KT 10SM BKN045 A2991
 
KTSP - Tehachapi, California, USA
Distance from station: NNW 48mi, 77km
Updated: Mon, 18-Feb-2019 2:35am PST
Overcast
Overcast
 Wind from WNW
Wind: WNW 13 mph , 20 km/h
Temperature: 27°F , -3°C
Wind Chill: 16°F , -9°C
Dew Point: 23°F , -5°C
Humidity: 86%
Barometer: 29.97 inHg , 1014.9 hPa
Clouds: Overcast
Visibility: 10 miles , 16 km
Cloud details: Overcast 1400 ft
2019/02/18 10:35 KTSP 181035Z AUTO 30011KT 10SM OVC014 M03/M05 A2997 RMK AO2